Time;durP1;ratioP1;P1;durP2;ratioP2;P2;SDS_P1;SDS_P2;PMS_P1;PMS_P2;Temp;Humidity;BMP_temperature;BMP_pressure;BME280_temperature;BME280_humidity;BME280_pressure;Samples;Min_cycle;Max_cycle;Signal;HPM_P1;HPM_P2
2024/03/05 00:00:58;;;;;;;33.67;16.50;;;7.50;99.90;;;;;;5051007;28;20409;-68
2024/03/05 00:03:24;;;;;;;36.03;18.10;;;7.40;99.90;;;;;;5052174;28;20448;-68
2024/03/05 00:05:50;;;;;;;33.40;16.53;;;7.30;99.90;;;;;;5052514;28;20799;-68
2024/03/05 00:08:16;;;;;;;32.27;14.53;;;7.30;99.90;;;;;;5052148;28;20418;-68
2024/03/05 00:10:42;;;;;;;32.00;16.23;;;7.30;99.90;;;;;;5050809;28;20463;-68
2024/03/05 00:13:07;;;;;;;28.17;15.40;;;7.30;99.90;;;;;;5052312;28;20178;-68
2024/03/05 00:15:33;;;;;;;29.00;15.40;;;7.30;99.90;;;;;;5052507;28;20815;-69
2024/03/05 00:17:59;;;;;;;26.90;14.13;;;7.20;99.90;;;;;;5052617;28;20190;-69
2024/03/05 00:20:24;;;;;;;35.17;16.93;;;7.20;99.90;;;;;;5052821;28;20488;-68
2024/03/05 00:22:50;;;;;;;35.40;16.73;;;7.10;99.90;;;;;;5052611;28;20169;-69
2024/03/05 00:25:19;;;;;;;32.10;16.33;;;7.10;99.90;;;;;;5052432;28;20613;-69
2024/03/05 00:27:44;;;;;;;29.83;16.77;;;7.00;99.90;;;;;;5052482;28;20413;-69
2024/03/05 00:30:13;;;;;;;39.30;17.30;;;7.00;99.90;;;;;;5052382;28;20401;-69
2024/03/05 00:32:38;;;;;;;49.83;21.70;;;6.90;99.90;;;;;;5052737;28;20167;-69
2024/03/05 00:35:08;;;;;;;32.67;18.10;;;6.90;99.90;;;;;;5056321;28;20772;-68
2024/03/05 00:37:38;;;;;;;32.53;15.33;;;6.90;99.90;;;;;;5056041;28;20187;-68
2024/03/05 00:40:08;;;;;;;28.50;15.60;;;6.90;99.90;;;;;;5055452;28;20409;-68
2024/03/05 00:42:34;;;;;;;34.07;16.00;;;7.00;99.90;;;;;;5054350;28;20746;-68
2024/03/05 00:45:00;;;;;;;40.80;17.50;;;6.90;99.90;;;;;;5054631;28;20457;-69
2024/03/05 00:47:26;;;;;;;39.80;17.03;;;6.90;99.90;;;;;;5055515;28;20769;-69
2024/03/05 00:49:51;;;;;;;36.93;18.30;;;6.90;99.90;;;;;;5055419;28;20221;-68
2024/03/05 00:52:17;;;;;;;32.87;17.03;;;6.90;99.90;;;;;;5055841;28;20197;-69
2024/03/05 00:54:44;;;;;;;30.73;15.20;;;6.90;99.90;;;;;;5055264;28;20171;-69
2024/03/05 00:57:11;;;;;;;32.37;15.70;;;7.00;99.90;;;;;;5057079;28;20959;-69
2024/03/05 00:59:37;;;;;;;37.70;16.87;;;7.00;99.90;;;;;;5057622;28;20464;-69
2024/03/05 01:02:03;;;;;;;37.33;16.17;;;7.00;99.90;;;;;;5055242;28;20449;-69
2024/03/05 01:04:29;;;;;;;29.57;15.20;;;6.90;99.90;;;;;;5054886;28;20440;-69
2024/03/05 01:06:56;;;;;;;30.77;14.47;;;7.00;99.90;;;;;;5056357;28;20709;-69
2024/03/05 01:09:24;;;;;;;29.30;13.90;;;7.00;99.90;;;;;;5055188;28;20984;-69
2024/03/05 01:11:52;;;;;;;25.10;12.80;;;6.90;99.90;;;;;;5056510;28;20780;-69
2024/03/05 01:14:18;;;;;;;28.73;14.03;;;6.90;99.90;;;;;;5056149;28;20404;-69
2024/03/05 01:16:44;;;;;;;22.80;12.50;;;6.90;99.90;;;;;;5056428;28;20411;-68
2024/03/05 01:19:12;;;;;;;27.87;13.77;;;6.80;99.90;;;;;;5057045;28;20971;-68
2024/03/05 01:21:37;;;;;;;29.13;16.47;;;6.80;99.90;;;;;;5056355;28;20178;-69
2024/03/05 01:24:04;;;;;;;30.37;15.50;;;6.70;99.90;;;;;;5056332;28;20441;-69
2024/03/05 01:26:29;;;;;;;28.53;15.47;;;6.70;99.90;;;;;;5056232;28;20408;-68
2024/03/05 01:28:55;;;;;;;28.57;14.10;;;6.70;99.90;;;;;;5056325;28;20784;-69
2024/03/05 01:31:21;;;;;;;35.23;15.27;;;6.70;99.90;;;;;;5056432;28;20676;-68
2024/03/05 01:33:47;;;;;;;28.93;14.43;;;6.70;99.90;;;;;;5055922;28;20171;-69
2024/03/05 01:36:15;;;;;;;28.97;13.37;;;6.70;99.90;;;;;;5056616;28;20459;-69
2024/03/05 01:38:41;;;;;;;30.37;14.43;;;6.60;99.90;;;;;;5056304;28;20189;-69
2024/03/05 01:41:07;;;;;;;34.20;17.20;;;6.60;99.90;;;;;;5054250;28;20413;-69
2024/03/05 01:43:33;;;;;;;36.73;16.00;;;6.60;99.90;;;;;;5054576;28;20526;-70
2024/03/05 01:45:59;;;;;;;29.10;15.27;;;6.60;99.90;;;;;;5053878;28;20178;-69
2024/03/05 01:48:25;;;;;;;30.37;16.07;;;6.60;99.90;;;;;;5055864;28;20183;-69
2024/03/05 01:50:51;;;;;;;35.53;16.90;;;6.70;99.90;;;;;;5055955;28;20567;-69
2024/03/05 01:53:18;;;;;;;31.63;17.67;;;6.70;99.90;;;;;;5055553;28;20954;-69
2024/03/05 01:55:46;;;;;;;36.30;16.23;;;6.80;99.90;;;;;;5056225;28;20221;-69
2024/03/05 01:58:14;;;;;;;36.17;16.67;;;6.80;99.90;;;;;;5056061;28;20512;-69
2024/03/05 02:00:40;;;;;;;37.60;17.50;;;6.80;99.90;;;;;;5056010;28;20433;-69
2024/03/05 02:03:06;;;;;;;29.50;14.90;;;6.80;99.90;;;;;;5054541;28;20946;-69
2024/03/05 02:05:33;;;;;;;28.50;14.53;;;6.80;99.90;;;;;;5055771;28;20409;-69
2024/03/05 02:07:58;;;;;;;35.90;15.70;;;6.90;99.90;;;;;;5055706;28;20428;-69
2024/03/05 02:10:24;;;;;;;30.90;14.70;;;6.90;99.90;;;;;;5055991;28;20431;-68
2024/03/05 02:12:50;;;;;;;35.00;16.47;;;7.00;99.90;;;;;;5055494;28;20171;-69
2024/03/05 02:15:18;;;;;;;30.27;16.13;;;7.00;99.90;;;;;;5055892;28;20410;-69
2024/03/05 02:17:44;;;;;;;29.67;16.23;;;7.00;99.90;;;;;;5054867;28;20222;-69
2024/03/05 02:20:12;;;;;;;30.50;14.80;;;7.00;99.90;;;;;;5053551;28;20441;-69
2024/03/05 02:22:38;;;;;;;27.50;15.00;;;7.00;99.90;;;;;;5051772;28;20178;-69
2024/03/05 02:25:05;;;;;;;24.57;14.23;;;7.10;99.90;;;;;;5053346;28;20460;-69
2024/03/05 02:27:31;;;;;;;27.87;15.57;;;7.10;99.90;;;;;;5053602;28;20563;-68
2024/03/05 02:29:57;;;;;;;37.60;18.20;;;7.10;99.90;;;;;;5053720;28;20409;-69
2024/03/05 02:32:23;;;;;;;35.47;16.63;;;7.10;99.90;;;;;;5052914;28;20413;-68
2024/03/05 02:34:52;;;;;;;35.80;18.57;;;7.00;99.90;;;;;;5053486;28;20404;-68
2024/03/05 02:37:18;;;;;;;28.87;15.10;;;7.00;99.90;;;;;;5053392;28;20837;-68
2024/03/05 02:39:43;;;;;;;33.17;17.00;;;7.10;99.90;;;;;;5053560;28;20416;-69
2024/03/05 02:42:09;;;;;;;31.57;17.47;;;7.20;99.90;;;;;;5052093;28;20178;-68
2024/03/05 02:44:35;;;;;;;34.60;16.20;;;7.20;99.90;;;;;;5053076;28;20229;-69
2024/03/05 02:47:02;;;;;;;33.23;15.53;;;7.20;99.90;;;;;;5051932;28;20723;-69
2024/03/05 02:49:28;;;;;;;37.13;17.70;;;7.10;99.90;;;;;;5053441;28;20258;-69
2024/03/05 02:51:54;;;;;;;35.73;18.67;;;7.10;99.90;;;;;;5053461;28;20512;-69
2024/03/05 02:54:20;;;;;;;35.73;16.50;;;7.10;99.90;;;;;;5053774;28;20500;-69
2024/03/05 02:56:46;;;;;;;31.87;15.63;;;7.20;99.90;;;;;;5052642;28;20900;-68
2024/03/05 02:59:11;;;;;;;39.70;17.10;;;7.20;99.90;;;;;;5053785;28;20179;-68
2024/03/05 03:01:37;;;;;;;39.87;19.67;;;7.30;99.90;;;;;;5052233;28;20178;-69
2024/03/05 03:04:02;;;;;;;38.13;17.33;;;7.30;99.90;;;;;;5053397;28;20684;-68
2024/03/05 03:06:28;;;;;;;37.23;17.33;;;7.30;99.90;;;;;;5053435;28;20194;-69
2024/03/05 03:08:53;;;;;;;33.70;18.77;;;7.30;99.90;;;;;;5052129;28;20190;-69
2024/03/05 03:11:19;;;;;;;32.60;18.37;;;7.40;99.90;;;;;;5053395;28;20167;-69
2024/03/05 03:13:46;;;;;;;39.97;17.57;;;7.50;99.90;;;;;;5051985;28;20634;-68
2024/03/05 03:16:13;;;;;;;38.57;17.83;;;7.50;99.90;;;;;;5053540;28;20171;-68
2024/03/05 03:18:39;;;;;;;29.37;15.33;;;7.50;99.90;;;;;;5052003;28;20463;-69
2024/03/05 03:21:05;;;;;;;33.10;18.50;;;7.60;99.90;;;;;;5053369;28;20409;-69
2024/03/05 03:23:30;;;;;;;32.87;17.10;;;7.60;99.90;;;;;;5052809;28;20488;-69
2024/03/05 03:25:59;;;;;;;34.73;17.27;;;7.70;99.90;;;;;;5053362;28;20194;-69
2024/03/05 03:28:24;;;;;;;33.90;16.87;;;7.70;99.90;;;;;;5053349;28;20661;-69
2024/03/05 03:30:54;;;;;;;35.63;19.13;;;7.60;99.90;;;;;;5053510;28;20401;-69
2024/03/05 03:33:20;;;;;;;42.33;18.17;;;7.60;99.90;;;;;;5051721;28;20179;-68
2024/03/05 03:35:47;;;;;;;35.30;17.00;;;7.70;99.90;;;;;;5052225;28;20937;-69
2024/03/05 03:38:12;;;;;;;39.73;18.83;;;7.60;99.90;;;;;;5052067;28;20433;-69
2024/03/05 03:40:41;;;;;;;35.70;18.07;;;7.70;99.90;;;;;;5053172;28;20413;-68
2024/03/05 03:43:06;;;;;;;40.37;18.80;;;7.70;99.90;;;;;;5053503;28;20179;-69
2024/03/05 03:45:32;;;;;;;39.03;20.77;;;7.70;99.90;;;;;;5053445;28;20416;-68
2024/03/05 03:47:57;;;;;;;43.63;18.80;;;7.80;99.90;;;;;;5053220;28;20178;-68
2024/03/05 03:50:23;;;;;;;45.97;19.40;;;7.80;99.90;;;;;;5053441;28;20185;-69
2024/03/05 03:52:49;;;;;;;45.00;17.93;;;7.80;99.90;;;;;;5053053;28;20654;-69
2024/03/05 03:55:15;;;;;;;35.47;18.47;;;7.90;99.90;;;;;;5051472;28;20178;-69
2024/03/05 03:57:42;;;;;;;46.37;17.67;;;7.90;99.90;;;;;;5053158;28;20429;-69
2024/03/05 04:00:09;;;;;;;39.70;19.33;;;7.90;99.90;;;;;;5053438;28;20488;-69
2024/03/05 04:02:36;;;;;;;35.37;17.20;;;7.90;99.90;;;;;;5052635;28;20412;-68
2024/03/05 04:05:04;;;;;;;35.73;17.57;;;7.90;99.90;;;;;;5052971;28;20460;-68
2024/03/05 04:07:31;;;;;;;32.00;17.43;;;7.90;99.90;;;;;;5054215;28;20420;-69
2024/03/05 04:09:59;;;;;;;32.50;15.43;;;7.90;99.90;;;;;;5059775;28;20405;-68
2024/03/05 04:12:25;;;;;;;34.70;18.47;;;7.90;99.90;;;;;;5059578;28;20401;-68
2024/03/05 04:14:51;;;;;;;39.17;17.30;;;7.90;99.90;;;;;;5058417;28;20417;-69
2024/03/05 04:17:19;;;;;;;32.27;15.97;;;7.90;99.90;;;;;;5059512;28;20186;-68
2024/03/05 04:19:45;;;;;;;38.23;17.43;;;7.90;99.90;;;;;;5059847;28;20433;-68
2024/03/05 04:22:14;;;;;;;38.90;17.73;;;7.90;99.90;;;;;;5058201;28;20428;-68
2024/03/05 04:24:42;;;;;;;40.20;18.90;;;7.90;99.90;;;;;;5059157;28;20460;-69
2024/03/05 04:27:11;;;;;;;31.47;14.67;;;7.90;99.90;;;;;;5059238;28;20492;-68
2024/03/05 04:29:41;;;;;;;37.53;16.90;;;8.00;99.90;;;;;;5058635;28;20412;-68
2024/03/05 04:32:10;;;;;;;42.77;18.93;;;8.00;99.90;;;;;;5058286;28;20933;-68
2024/03/05 04:34:36;;;;;;;34.43;15.70;;;8.00;99.90;;;;;;5059106;28;20407;-69
2024/03/05 04:37:02;;;;;;;33.43;17.63;;;8.00;99.90;;;;;;5059099;28;20425;-69
2024/03/05 04:39:27;;;;;;;38.33;17.40;;;8.00;99.90;;;;;;5059102;28;20421;-69
2024/03/05 04:41:53;;;;;;;32.20;16.23;;;8.00;99.90;;;;;;5059290;28;20178;-68
2024/03/05 04:44:19;;;;;;;35.20;16.57;;;8.10;99.90;;;;;;5057849;28;20191;-68
2024/03/05 04:46:44;;;;;;;25.30;14.77;;;8.20;99.90;;;;;;5058770;28;20416;-68
2024/03/05 04:49:10;;;;;;;34.90;16.10;;;8.20;99.90;;;;;;5057170;28;20537;-69
2024/03/05 04:51:35;;;;;;;30.63;17.67;;;8.10;99.90;;;;;;5057385;28;20565;-69
2024/03/05 04:54:01;;;;;;;43.23;18.30;;;8.10;99.90;;;;;;5058116;28;20609;-68
2024/03/05 04:56:27;;;;;;;41.90;18.63;;;8.10;99.90;;;;;;5058514;28;20700;-68
2024/03/05 04:58:53;;;;;;;39.60;17.77;;;8.00;99.90;;;;;;5057161;28;20271;-69
2024/03/05 05:01:18;;;;;;;42.90;18.43;;;7.90;99.90;;;;;;5059628;28;20162;-69
2024/03/05 05:03:44;;;;;;;33.10;17.30;;;7.80;99.90;;;;;;5058262;28;20217;-69
2024/03/05 05:06:10;;;;;;;37.87;19.20;;;7.80;99.90;;;;;;5058439;28;20163;-69
2024/03/05 05:08:36;;;;;;;33.53;20.23;;;7.80;99.90;;;;;;5057805;28;20186;-69
2024/03/05 05:11:02;;;;;;;35.70;18.07;;;7.80;99.90;;;;;;5058063;28;20401;-68
2024/03/05 05:13:27;;;;;;;34.67;18.60;;;7.80;99.90;;;;;;5056898;28;20228;-69
2024/03/05 05:15:54;;;;;;;38.80;19.73;;;7.80;99.90;;;;;;5058794;28;20175;-68
2024/03/05 05:18:20;;;;;;;40.47;16.97;;;7.80;99.90;;;;;;5058889;28;20190;-69
2024/03/05 05:20:46;;;;;;;45.23;19.33;;;7.70;99.90;;;;;;5054932;28;20414;-69
2024/03/05 05:23:11;;;;;;;39.33;19.60;;;7.60;99.90;;;;;;5053484;28;20763;-69
2024/03/05 05:25:37;;;;;;;34.87;17.43;;;7.70;99.90;;;;;;5053664;28;20420;-69
2024/03/05 05:28:05;;;;;;;37.03;17.20;;;7.70;99.90;;;;;;5054986;28;20190;-69
2024/03/05 05:30:30;;;;;;;35.43;16.60;;;7.80;99.90;;;;;;5054784;28;20170;-69
2024/03/05 05:32:56;;;;;;;39.13;17.57;;;7.80;99.90;;;;;;5054494;28;20397;-69
2024/03/05 05:35:22;;;;;;;43.63;17.37;;;7.70;99.90;;;;;;5054760;28;20192;-69
2024/03/05 05:37:47;;;;;;;41.17;20.23;;;7.70;99.90;;;;;;5053558;28;20429;-69
2024/03/05 05:40:16;;;;;;;40.53;21.00;;;7.80;99.90;;;;;;5054858;28;20221;-70
2024/03/05 05:42:48;;;;;;;44.83;17.33;;;7.90;99.90;;;;;;5054127;28;20167;-70
2024/03/05 05:45:14;;;;;;;39.67;18.27;;;7.90;99.90;;;;;;5055258;28;20452;-68
2024/03/05 05:47:56;;;;;;;40.20;17.43;;;7.80;99.90;;;;;;5054855;28;20421;-69
2024/03/05 05:50:25;;;;;;;35.47;17.60;;;7.90;99.90;;;;;;5053697;28;20409;-69
2024/03/05 05:52:55;;;;;;;38.00;16.97;;;7.80;99.90;;;;;;5054746;28;20429;-69
2024/03/05 05:55:27;;;;;;;35.20;19.00;;;7.90;99.90;;;;;;5054633;28;20409;-69
2024/03/05 05:57:53;;;;;;;35.30;17.77;;;7.80;99.90;;;;;;5053605;28;20524;-69
2024/03/05 06:00:36;;;;;;;44.40;19.10;;;7.80;99.90;;;;;;5054803;28;20421;-69
2024/03/05 06:03:08;;;;;;;39.00;18.80;;;7.80;99.90;;;;;;5054836;28;20417;-70
2024/03/05 06:05:36;;;;;;;49.50;17.87;;;7.90;99.90;;;;;;5054601;28;20421;-68
2024/03/05 06:08:03;;;;;;;34.20;19.33;;;7.90;99.90;;;;;;5054831;28;20927;-69
2024/03/05 06:10:30;;;;;;;32.73;17.57;;;7.90;99.90;;;;;;5055264;28;20413;-69
2024/03/05 06:12:56;;;;;;;33.50;17.87;;;7.90;99.90;;;;;;5054693;28;20480;-69
2024/03/05 06:15:21;;;;;;;37.60;17.57;;;7.90;99.90;;;;;;5055082;28;20463;-69
2024/03/05 06:17:49;;;;;;;35.70;18.40;;;8.00;99.90;;;;;;5055206;28;20928;-70
2024/03/05 06:20:14;;;;;;;42.13;17.40;;;8.00;99.90;;;;;;5055002;28;20171;-68
2024/03/05 06:22:42;;;;;;;34.80;17.23;;;8.10;99.90;;;;;;5053369;28;20428;-69
2024/03/05 06:25:09;;;;;;;42.90;18.83;;;8.10;99.90;;;;;;5054592;28;20753;-70
2024/03/05 06:27:38;;;;;;;42.63;20.80;;;8.10;99.90;;;;;;5054613;28;20479;-69
2024/03/05 06:30:08;;;;;;;38.80;18.70;;;8.00;99.90;;;;;;5054674;28;20421;-69
2024/03/05 06:32:46;;;;;;;47.43;20.47;;;8.10;99.90;;;;;;5052539;28;20405;-69
2024/03/05 06:35:12;;;;;;;32.77;17.23;;;8.10;99.90;;;;;;5053360;28;20421;-69
2024/03/05 06:37:39;;;;;;;37.87;18.00;;;8.20;99.90;;;;;;5054436;28;20530;-69
2024/03/05 06:40:09;;;;;;;41.83;17.30;;;8.20;99.90;;;;;;5054518;28;20829;-69
2024/03/05 06:42:35;;;;;;;38.27;20.07;;;8.20;99.90;;;;;;5054147;28;20454;-69
2024/03/05 06:45:06;;;;;;;40.53;18.60;;;8.30;99.90;;;;;;5054508;28;20517;-69
2024/03/05 06:47:38;;;;;;;41.50;17.80;;;8.30;99.90;;;;;;5054348;28;20429;-68
2024/03/05 06:50:07;;;;;;;34.50;19.87;;;8.30;99.90;;;;;;5054786;28;20884;-69
2024/03/05 06:58:04;;;;;;;43.17;20.10;;;8.30;99.90;;;;;;5054542;28;20432;-69
2024/03/05 07:00:30;;;;;;;46.20;19.07;;;8.30;99.90;;;;;;5053907;28;20416;-69
2024/03/05 07:02:55;;;;;;;49.87;19.30;;;8.30;99.90;;;;;;5053878;28;20815;-70
2024/03/05 07:05:22;;;;;;;38.27;18.70;;;8.20;99.90;;;;;;5054073;28;20206;-69
2024/03/05 07:07:48;;;;;;;51.10;18.77;;;8.20;99.90;;;;;;5054058;28;20668;-69
2024/03/05 07:10:14;;;;;;;33.90;17.70;;;8.20;99.90;;;;;;5053654;28;20472;-69
2024/03/05 07:12:44;;;;;;;41.60;19.20;;;8.30;99.90;;;;;;5053565;28;20445;-69
2024/03/05 07:15:14;;;;;;;55.23;20.40;;;8.30;99.90;;;;;;5052535;28;20175;-69
2024/03/05 07:17:42;;;;;;;43.67;18.60;;;8.30;99.90;;;;;;5053498;28;20508;-69
2024/03/05 07:20:18;;;;;;;38.13;19.50;;;8.30;99.90;;;;;;5053716;28;20405;-69
2024/03/05 07:22:47;;;;;;;41.53;20.87;;;8.30;99.90;;;;;;5053252;28;20412;-69
2024/03/05 07:25:14;;;;;;;35.87;17.37;;;8.30;99.90;;;;;;5053380;28;20468;-69
2024/03/05 07:27:41;;;;;;;44.00;18.27;;;8.40;99.90;;;;;;5051882;28;20846;-69
2024/03/05 07:30:11;;;;;;;44.90;18.97;;;8.30;99.90;;;;;;5053226;28;20451;-69
2024/03/05 07:32:37;;;;;;;42.27;20.57;;;8.40;99.90;;;;;;5052840;28;20419;-69
2024/03/05 07:35:04;;;;;;;62.70;22.20;;;8.50;99.90;;;;;;5053202;28;20405;-69
2024/03/05 07:37:29;;;;;;;42.90;20.87;;;8.50;99.90;;;;;;5053195;28;20465;-69
2024/03/05 07:39:55;;;;;;;36.80;17.90;;;8.50;99.90;;;;;;5053075;28;20405;-69
2024/03/05 07:42:20;;;;;;;39.27;18.60;;;8.60;99.90;;;;;;5051288;28;20428;-69
2024/03/05 07:44:46;;;;;;;42.20;18.23;;;8.50;99.90;;;;;;5051776;28;20225;-69
2024/03/05 07:47:11;;;;;;;35.83;18.20;;;8.50;99.90;;;;;;5052821;28;20287;-70
2024/03/05 07:49:37;;;;;;;36.07;17.10;;;8.60;99.90;;;;;;5053133;28;20163;-69
2024/03/05 07:52:02;;;;;;;37.00;16.70;;;8.70;99.90;;;;;;5051667;28;20653;-69
2024/03/05 07:54:28;;;;;;;40.20;16.53;;;8.80;99.90;;;;;;5052068;28;20171;-69
2024/03/05 07:56:53;;;;;;;45.10;21.20;;;8.90;99.90;;;;;;5051474;28;20177;-69
2024/03/05 07:59:19;;;;;;;42.93;18.17;;;8.90;99.90;;;;;;5052084;28;20166;-69
2024/03/05 08:01:45;;;;;;;42.23;17.90;;;8.80;99.90;;;;;;5051914;28;20171;-69
2024/03/05 08:04:11;;;;;;;36.80;18.10;;;8.80;99.90;;;;;;5051281;28;20187;-69
2024/03/05 08:06:37;;;;;;;37.10;18.10;;;8.90;99.90;;;;;;5050902;28;20406;-69
2024/03/05 08:09:03;;;;;;;35.77;18.80;;;8.90;99.90;;;;;;5051673;28;20206;-69
2024/03/05 08:11:29;;;;;;;50.30;21.30;;;9.00;99.90;;;;;;5051996;28;20463;-69
2024/03/05 08:13:55;;;;;;;48.00;20.43;;;9.00;99.90;;;;;;5051470;28;20398;-69
2024/03/05 08:16:20;;;;;;;52.10;20.23;;;9.00;99.90;;;;;;5052045;28;20410;-69
2024/03/05 08:18:46;;;;;;;37.53;19.90;;;8.90;99.90;;;;;;5050960;28;20244;-69
2024/03/05 08:21:13;;;;;;;55.77;19.93;;;8.90;99.90;;;;;;5052119;28;20209;-70
2024/03/05 08:23:38;;;;;;;49.60;18.80;;;8.90;99.90;;;;;;5050003;28;20191;-68
2024/03/05 08:26:05;;;;;;;41.77;20.20;;;8.90;99.90;;;;;;5051057;28;20931;-67
2024/03/05 08:28:30;;;;;;;39.37;18.03;;;9.00;99.90;;;;;;5051463;28;20565;-67
2024/03/05 08:30:56;;;;;;;36.97;16.43;;;9.10;99.90;;;;;;5051455;28;20398;-67
2024/03/05 08:33:23;;;;;;;34.53;17.00;;;9.30;99.90;;;;;;5051274;28;20213;-68
2024/03/05 08:35:49;;;;;;;51.07;18.60;;;9.40;99.90;;;;;;5051550;28;20171;-68
2024/03/05 08:38:14;;;;;;;52.17;22.60;;;9.50;99.90;;;;;;5051407;28;20414;-67
2024/03/05 08:40:40;;;;;;;39.30;18.70;;;9.50;99.90;;;;;;5050161;28;20171;-67
2024/03/05 08:43:07;;;;;;;38.03;17.73;;;9.50;99.90;;;;;;5051112;28;20178;-67
2024/03/05 08:45:36;;;;;;;50.73;21.70;;;9.60;99.90;;;;;;5051377;28;20198;-67
2024/03/05 08:48:01;;;;;;;56.40;21.07;;;9.60;99.90;;;;;;5051285;28;20430;-68
2024/03/05 08:50:29;;;;;;;43.90;18.80;;;9.60;99.90;;;;;;5051350;28;20495;-67
2024/03/05 08:52:55;;;;;;;37.17;17.87;;;9.60;99.90;;;;;;5050929;28;20183;-67
2024/03/05 08:55:20;;;;;;;36.90;17.50;;;9.70;99.90;;;;;;5053584;28;20427;-68
2024/03/05 08:57:46;;;;;;;39.13;19.87;;;9.70;99.90;;;;;;5055045;28;20728;-68
2024/03/05 09:00:17;;;;;;;40.10;18.63;;;9.70;99.90;;;;;;5055024;28;20202;-68
2024/03/05 09:02:46;;;;;;;44.90;19.20;;;9.70;99.90;;;;;;5054809;28;20240;-68
2024/03/05 09:05:13;;;;;;;38.30;16.37;;;9.80;99.90;;;;;;5054959;28;21023;-68
2024/03/05 09:07:40;;;;;;;33.10;17.13;;;9.80;99.90;;;;;;5054882;28;20912;-68
2024/03/05 09:10:06;;;;;;;32.63;16.30;;;9.80;99.90;;;;;;5054813;28;20460;-68
2024/03/05 09:12:32;;;;;;;38.80;19.20;;;9.80;99.90;;;;;;5054499;28;20475;-68
2024/03/05 09:14:58;;;;;;;40.53;18.10;;;9.80;99.90;;;;;;5054814;28;20413;-68
2024/03/05 09:17:23;;;;;;;33.17;16.27;;;9.90;99.90;;;;;;5054603;28;20612;-68
2024/03/05 09:19:49;;;;;;;36.73;17.03;;;9.90;99.90;;;;;;5054743;28;20175;-67
2024/03/05 09:22:16;;;;;;;39.60;16.77;;;9.90;99.90;;;;;;5054633;28;20221;-67
2024/03/05 09:24:45;;;;;;;37.67;18.50;;;9.90;99.90;;;;;;5054278;28;20460;-67
2024/03/05 09:27:11;;;;;;;39.50;18.60;;;10.00;99.90;;;;;;5054246;28;20475;-68
2024/03/05 09:29:37;;;;;;;43.60;20.27;;;10.00;99.90;;;;;;5054417;28;20405;-68
2024/03/05 09:32:03;;;;;;;43.50;17.30;;;10.10;99.90;;;;;;5054398;28;20489;-69
2024/03/05 09:34:29;;;;;;;32.60;16.27;;;10.10;99.90;;;;;;5054232;28;20175;-67
2024/03/05 09:36:56;;;;;;;37.47;18.30;;;10.20;99.90;;;;;;5054237;28;20167;-68
2024/03/05 09:39:22;;;;;;;33.70;16.37;;;10.20;99.90;;;;;;5054347;28;20409;-68
2024/03/05 09:41:52;;;;;;;33.27;15.53;;;10.30;99.90;;;;;;5054224;28;20406;-67
2024/03/05 09:44:18;;;;;;;33.63;16.50;;;10.40;99.90;;;;;;5053883;28;20519;-67
2024/03/05 09:46:48;;;;;;;32.77;16.67;;;10.40;99.90;;;;;;5054189;28;20397;-67
2024/03/05 09:49:15;;;;;;;34.63;16.97;;;10.40;99.90;;;;;;5053080;28;20780;-67
2024/03/05 09:51:42;;;;;;;31.40;16.90;;;10.50;99.90;;;;;;5054069;28;20398;-68
2024/03/05 09:54:10;;;;;;;40.43;19.97;;;10.50;99.90;;;;;;5053912;28;20440;-68
2024/03/05 09:56:41;;;;;;;32.60;17.07;;;10.60;99.90;;;;;;5053926;28;20430;-68
2024/03/05 09:59:12;;;;;;;28.80;15.03;;;10.60;99.90;;;;;;5054055;28;20776;-67
2024/03/05 10:01:44;;;;;;;34.53;16.17;;;10.70;99.90;;;;;;5053958;28;20407;-68
2024/03/05 10:04:12;;;;;;;29.30;15.07;;;10.60;99.90;;;;;;5053577;28;20453;-68
2024/03/05 10:06:38;;;;;;;43.13;17.47;;;10.60;99.90;;;;;;5053293;28;20413;-68
2024/03/05 10:09:05;;;;;;;32.17;14.13;;;10.70;99.90;;;;;;5053804;28;20408;-68
2024/03/05 10:11:31;;;;;;;31.63;13.80;;;10.70;99.90;;;;;;5053335;28;20603;-68
2024/03/05 10:14:05;;;;;;;29.97;12.60;;;10.70;99.90;;;;;;5061177;28;20499;-68
2024/03/05 10:16:34;;;;;;;27.90;13.87;;;10.80;99.90;;;;;;5073316;28;20400;-68
2024/03/05 10:19:19;;;;;;;31.13;14.87;;;10.90;99.90;;;;;;5073191;28;20512;-68
2024/03/05 10:21:49;;;;;;;22.57;12.23;;;11.00;99.90;;;;;;5073394;28;20427;-68
2024/03/05 10:24:26;;;;;;;24.90;13.17;;;11.10;99.90;;;;;;5072035;28;20471;-68
2024/03/05 10:26:52;;;;;;;29.37;13.90;;;11.30;99.90;;;;;;5071906;28;20416;-68
2024/03/05 10:29:18;;;;;;;26.53;14.30;;;11.30;99.90;;;;;;5073088;28;20473;-67
2024/03/05 10:31:44;;;;;;;33.77;16.90;;;11.40;99.90;;;;;;5073370;28;20412;-68
2024/03/05 10:34:10;;;;;;;33.87;15.50;;;11.40;99.90;;;;;;5072658;28;20193;-68
2024/03/05 10:36:41;;;;;;;25.40;13.70;;;11.40;99.90;;;;;;5073685;28;20820;-68
2024/03/05 10:39:08;;;;;;;26.43;14.40;;;11.50;99.90;;;;;;5072979;28;20189;-68
2024/03/05 10:41:38;;;;;;;28.07;13.80;;;11.50;99.90;;;;;;5062983;28;20453;-68
2024/03/05 10:44:06;;;;;;;30.13;13.47;;;11.50;99.90;;;;;;5052822;28;20967;-68
2024/03/05 10:46:33;;;;;;;23.00;11.93;;;11.50;99.90;;;;;;5052943;28;20416;-68
2024/03/05 10:49:01;;;;;;;21.43;11.23;;;11.50;99.90;;;;;;5052594;28;20437;-68
2024/03/05 10:51:31;;;;;;;30.17;13.93;;;11.50;99.90;;;;;;5052675;28;20443;-67
2024/03/05 10:54:01;;;;;;;26.40;13.13;;;11.50;99.90;;;;;;5052630;28;20805;-68
2024/03/05 10:56:27;;;;;;;25.03;12.23;;;11.50;99.90;;;;;;5052758;28;20413;-67
2024/03/05 11:01:38;;;;;;;24.47;10.90;;;11.50;99.90;;;;;;5052769;28;20404;-68
2024/03/05 11:04:20;;;;;;;25.57;11.17;;;11.50;99.90;;;;;;5046469;28;20465;-68
2024/03/05 11:06:52;;;;;;;19.67;10.67;;;11.50;99.90;;;;;;5043449;28;20417;-68
2024/03/05 11:09:20;;;;;;;24.73;12.07;;;11.50;99.90;;;;;;5052310;28;20421;-67
2024/03/05 11:11:51;;;;;;;17.97;10.50;;;11.60;99.90;;;;;;5052523;28;20770;-68
2024/03/05 11:14:17;;;;;;;16.93;9.60;;;11.60;99.90;;;;;;5061448;28;20431;-68
2024/03/05 11:16:47;;;;;;;18.33;11.50;;;11.50;99.90;;;;;;5072031;28;20470;-67
2024/03/05 11:19:13;;;;;;;22.23;10.20;;;11.30;99.90;;;;;;5071653;28;20451;-68
2024/03/05 11:21:41;;;;;;;19.23;12.20;;;11.30;99.90;;;;;;5061385;28;21018;-67
2024/03/05 11:24:07;;;;;;;18.27;9.80;;;11.30;99.90;;;;;;5049852;28;20195;-68
2024/03/05 11:26:34;;;;;;;19.03;11.73;;;11.40;99.90;;;;;;5048068;28;21217;-68
2024/03/05 11:29:20;;;;;;;15.83;10.40;;;11.50;99.90;;;;;;5058528;28;20202;-68
2024/03/05 11:31:50;;;;;;;13.60;10.07;;;11.40;99.90;;;;;;5046249;28;20412;-68
2024/03/05 11:34:17;;;;;;;14.23;9.83;;;11.40;99.90;;;;;;5046175;28;20418;-68
2024/03/05 11:36:44;;;;;;;17.10;9.40;;;11.30;99.90;;;;;;5046177;28;20441;-67
2024/03/05 11:39:14;;;;;;;14.50;9.77;;;11.40;99.90;;;;;;5051906;28;20482;-67
2024/03/05 11:41:44;;;;;;;19.50;9.40;;;11.50;99.90;;;;;;5052177;28;20413;-68
2024/03/05 11:44:12;;;;;;;15.27;9.77;;;11.70;99.90;;;;;;5051794;28;20473;-68
2024/03/05 11:46:49;;;;;;;13.63;8.53;;;11.80;99.90;;;;;;5052042;28;20823;-68
2024/03/05 11:49:16;;;;;;;15.33;9.37;;;11.80;99.90;;;;;;5052313;28;20884;-68
2024/03/05 11:51:44;;;;;;;14.80;9.70;;;11.90;99.90;;;;;;5051917;28;20421;-68
2024/03/05 11:54:12;;;;;;;12.13;7.80;;;11.90;99.90;;;;;;5051680;28;20406;-68
2024/03/05 11:56:44;;;;;;;19.60;7.70;;;12.10;99.90;;;;;;5051894;28;20825;-68
2024/03/05 11:59:11;;;;;;;11.03;7.53;;;12.20;99.90;;;;;;5051959;28;20406;-67
2024/03/05 12:01:39;;;;;;;12.83;8.77;;;12.30;99.90;;;;;;5051865;28;20409;-68
2024/03/05 12:04:07;;;;;;;10.83;8.60;;;12.40;99.90;;;;;;5051572;28;20493;-68
2024/03/05 12:06:34;;;;;;;14.57;8.33;;;12.50;99.90;;;;;;5051840;28;20405;-67
2024/03/05 12:09:22;;;;;;;9.47;7.33;;;12.60;99.90;;;;;;5051721;28;20445;-69
2024/03/05 12:12:02;;;;;;;10.77;8.30;;;12.70;99.90;;;;;;5051861;28;20433;-69
2024/03/05 12:14:36;;;;;;;11.83;8.03;;;12.90;99.90;;;;;;5051511;28;20445;-68
2024/03/05 12:17:07;;;;;;;15.07;8.63;;;12.90;99.90;;;;;;5049985;28;20425;-67
2024/03/05 12:19:34;;;;;;;10.70;7.63;;;13.00;99.90;;;;;;5046781;28;20421;-67
2024/03/05 12:22:00;;;;;;;13.77;8.70;;;13.10;99.90;;;;;;5051485;28;20413;-67
2024/03/05 12:24:30;;;;;;;14.30;9.27;;;13.10;99.90;;;;;;5050953;28;20459;-67
2024/03/05 12:26:56;;;;;;;9.90;7.53;;;13.10;99.90;;;;;;5046127;28;20417;-67
2024/03/05 12:29:40;;;;;;;16.83;8.67;;;13.10;99.90;;;;;;5045462;28;20457;-67
2024/03/05 12:32:08;;;;;;;12.70;7.90;;;13.10;99.90;;;;;;5055320;28;20811;-67
2024/03/05 12:34:34;;;;;;;11.17;7.37;;;13.10;99.90;;;;;;5045696;28;20422;-67
2024/03/05 12:37:00;;;;;;;13.87;7.27;;;13.10;99.90;;;;;;5040715;28;20536;-67
2024/03/05 12:39:26;;;;;;;12.57;6.83;;;13.00;99.90;;;;;;5043708;28;20424;-67
2024/03/05 12:42:02;;;;;;;8.07;6.97;;;13.10;99.90;;;;;;5055251;28;20420;-67
2024/03/05 12:44:30;;;;;;;10.33;7.30;;;13.10;99.90;;;;;;5054921;28;20252;-67